Terminal Aerodrome Forecast
Issued by NWS

Home | Current Version | Previous Version | Text Only | Print | Product List | Glossary On
Versions: 1 2 3 4 5 6 7 8 9 10 11 12 13 14 15 16 17 18 19
348
FTUS41 KPBZ 281120
TAFLBE
TAF
KLBE 281120Z 2812/2912 18004KT 3SM -SHRA BR BKN020
     FM281600 25004KT 5SM -SHRA BR OVC010
     FM282100 32008KT P6SM VCSH OVC025=

USA.gov is the U.S. government's official web portal to all federal, state and local government web resources and services.